Airfield :
LOGIN :

Register | Disclaimer

   EN    FR    IT 

 










Legend :    VFR   Marginal VFR   IFR   Intensive IFR   Very Intensive IFR
Visi :
Ceiling :
>= 8 km
>= 3000ft
5 to 8 km
1000 to 3000 ft
1500m to 5 km
500 to 1000 ft
800 to 1500m
200 to 500 ft
< 800m
< 200 ft
Symbols :   Thunderstorms  Fog  Heavy snow  Heavy precipitations  Wind > 20 kt
SIGMETs :     Misc.  Thunderstorms  Icing  Turbulence  Mountain Waves  Volcanic Ashes







- Airport Elevation : 526 ft
- IATA code : LTN
- Download approach charts


EGGW - London Luton

CURRENT METAR :
  • 251420Z AUTO 18014KT 140V220 9999 SCT042 15/05 Q0999

EXPIRED METARs :
  • 251350Z AUTO 17011G22KT 9999 SCT040 BKN047 15/06 Q0999
  • 251320Z AUTO 17011KT 140V210 9999 BKN041 14/05 Q0998
  • 251250Z AUTO 16014KT 9999 SCT038 15/06 Q0998
  • 251220Z AUTO 17013KT 150V210 9999 FEW035 15/06 Q0998
  • 251150Z AUTO 16011KT 140V200 9999 FEW028 SCT033 14/07 Q0998

TAF TAF EGGW
Valid from the 25 at 12:00 until the 26 at 12:00 UTC


251102Z 2512/2612 18009KT 9999 SCT025
TEMPO 2512/2518 7000 SHRA
PROB30
TEMPO 2512/2516 20015G25KT 4000 +SHRA TSRA BKN014 BKN020CB
PROB30
TEMPO 2603/2608 8000 BKN006
TEMPO 2609/2612 7000 SHRA
ATIS : +44 1582 395 204
No reported NOTAMs for that airfield.
2 SIGMETs reported for the London FIR (EGTT) :
 
Frequent thunderstorms
EGTT SIGMET 03 VALID 251410/251600 EGRR
EGTT LONDON FIR FRQ TS FCST WI N5310 W00100 - N5249 W00049 - N5243 W00303 - N5333 W00311 - N5310 W00100 TOP FL270 MOV N 15KT NC=
Embedded thunderstorms
EGTT SIGMET 02 VALID 251410/251700 EGRR
EGTT LONDON FIR EMBD TS FCST WI N5429 W00033 - N5325 E00024 - N5404 W00301 - N5438 W00309 - N5429 W00033 TOP FL270 MOV N 15KT NC=



MET'MAP, your aeronautical weather chart ! - Copyright ORBIFLY December 2007 - Disclaimer

ORBIFLY MET'MAP TEAM :

Programming & Development : Alexandra Zaïnal
Concept & Development : Baudouin d'Aumeries
Co-Development & Prog : Marc-Olivier Méhu
Technical & hardware support : Manuel Goepfert

Contact : metmap@orbifly.com




SOURCES & CREDITS :

   NOAA